Time;durP1;ratioP1;P1;durP2;ratioP2;P2;SDS_P1;SDS_P2;PMS_P1;PMS_P2;Temp;Humidity;BMP_temperature;BMP_pressure;BME280_temperature;BME280_humidity;BME280_pressure;Samples;Min_cycle;Max_cycle;Signal;HPM_P1;HPM_P2
2022/02/12 00:00:59;;;;;;;1.70;1.32;;;;;;;0.71;94.03;98476.89;1672814;85;20910;-66
2022/02/12 00:03:25;;;;;;;3.27;1.67;;;;;;;0.72;93.96;98470.61;1720044;83;20876;-61
2022/02/12 00:05:52;;;;;;;1.67;1.42;;;;;;;0.74;93.89;98487.02;1657106;85;20918;-62
2022/02/12 00:08:18;;;;;;;1.65;1.47;;;;;;;0.72;93.98;98481.16;1720168;83;21128;-64
2022/02/12 00:10:46;;;;;;;1.77;1.40;;;;;;;0.72;93.94;98481.66;1720127;83;20986;-62
2022/02/12 00:13:13;;;;;;;3.72;1.90;;;;;;;0.71;93.97;98487.44;1663595;86;20937;-65
2022/02/12 00:15:40;;;;;;;2.80;1.50;;;;;;;0.73;93.67;98486.70;1723016;83;21482;-62
2022/02/12 00:18:08;;;;;;;2.90;1.75;;;;;;;0.73;93.58;98497.25;1723171;83;21521;-65
2022/02/12 00:20:35;;;;;;;1.92;1.37;;;;;;;0.70;93.58;98505.61;1723181;83;21399;-61
2022/02/12 00:23:02;;;;;;;3.10;1.50;;;;;;;0.71;93.63;98509.06;1722869;83;20938;-65
2022/02/12 00:25:29;;;;;;;3.27;1.90;;;;;;;0.71;93.65;98515.66;1722925;83;20916;-61
2022/02/12 00:27:56;;;;;;;3.77;1.90;;;;;;;0.72;93.59;98526.48;1722819;83;21006;-66
2022/02/12 00:30:23;;;;;;;3.65;2.05;;;;;;;0.70;93.46;98525.39;1722950;83;20888;-65
2022/02/12 00:32:50;;;;;;;4.03;1.60;;;;;;;0.71;93.37;98526.98;1723086;83;21494;-61
2022/02/12 00:35:16;;;;;;;4.15;2.02;;;;;;;0.72;93.06;98538.34;1722856;83;20978;-62
2022/02/12 00:37:43;;;;;;;3.60;2.05;;;;;;;0.67;93.13;98538.98;1722912;83;20994;-65
2022/02/12 00:40:11;;;;;;;3.37;2.00;;;;;;;0.68;92.70;98547.99;1723164;83;20986;-62
2022/02/12 00:42:38;;;;;;;3.25;1.87;;;;;;;0.69;92.41;98542.22;1722909;83;21459;-61
2022/02/12 00:45:07;;;;;;;3.22;2.17;;;;;;;0.67;92.28;98549.03;1722916;83;21071;-62
2022/02/12 00:47:34;;;;;;;4.10;2.22;;;;;;;0.64;92.10;98550.77;1723101;83;20912;-65
2022/02/12 00:50:03;;;;;;;2.47;1.80;;;;;;;0.64;91.50;98556.55;1713172;83;20867;-65
2022/02/12 00:52:29;;;;;;;3.80;2.27;;;;;;;0.62;91.54;98564.67;1719412;83;20906;-61
2022/02/12 00:54:56;;;;;;;3.37;2.30;;;;;;;0.62;91.54;98567.81;1709602;84;20985;-61
2022/02/12 00:57:22;;;;;;;3.70;2.00;;;;;;;0.61;91.13;98565.69;1719815;83;21109;-66
2022/02/12 00:59:49;;;;;;;3.70;2.30;;;;;;;0.60;91.08;98572.50;1709513;84;20989;-67
2022/02/12 01:02:15;;;;;;;4.60;2.55;;;;;;;0.56;90.46;98570.81;1709839;84;20969;-66
2022/02/12 01:04:42;;;;;;;3.85;2.60;;;;;;;0.55;89.96;98567.05;1709661;84;21387;-66
2022/02/12 01:07:09;;;;;;;4.03;3.00;;;;;;;0.54;89.86;98573.36;1719577;83;20997;-65
2022/02/12 01:09:37;;;;;;;6.33;3.35;;;;;;;0.51;89.92;98586.95;1719540;83;21073;-65
2022/02/12 01:12:06;;;;;;;5.25;3.62;;;;;;;0.49;90.03;98583.22;1677335;85;20895;-66
2022/02/12 01:14:33;;;;;;;5.30;3.27;;;;;;;0.50;90.11;98588.78;1692304;84;20910;-65
2022/02/12 01:17:01;;;;;;;6.15;3.55;;;;;;;0.55;90.18;98596.05;1692293;84;20965;-64
2022/02/12 01:19:28;;;;;;;5.70;4.20;;;;;;;0.59;90.23;98595.91;1692232;84;20961;-66
2022/02/12 01:21:55;;;;;;;7.80;4.78;;;;;;;0.64;90.24;98609.27;1692102;84;21128;-65
2022/02/12 01:24:21;;;;;;;8.98;5.40;;;;;;;0.65;89.69;98600.36;1692260;84;21389;-64
2022/02/12 01:26:49;;;;;;;7.35;4.95;;;;;;;0.63;89.77;98603.72;1692211;84;20954;-67
2022/02/12 01:29:15;;;;;;;8.05;4.85;;;;;;;0.65;89.56;98612.22;1692101;83;20914;-65
2022/02/12 01:31:43;;;;;;;7.83;4.80;;;;;;;0.66;89.42;98604.59;1692210;84;21004;-64
2022/02/12 01:34:09;;;;;;;11.22;5.50;;;;;;;0.67;89.52;98611.50;1692207;84;21117;-67
2022/02/12 01:36:37;;;;;;;10.43;5.80;;;;;;;0.70;89.60;98617.67;1692034;84;21040;-66
2022/02/12 01:39:04;;;;;;;8.30;5.25;;;;;;;0.70;89.30;98616.36;1692516;84;20890;-66
2022/02/12 01:41:30;;;;;;;7.62;5.45;;;;;;;0.71;89.28;98627.72;1692091;84;21541;-63
2022/02/12 01:44:09;;;;;;;8.53;5.72;;;;;;;0.74;89.24;98620.17;1692201;84;20906;-63
2022/02/12 01:46:36;;;;;;;8.73;6.03;;;;;;;0.75;89.07;98625.77;1691062;84;21076;-65
2022/02/12 01:49:03;;;;;;;12.03;6.37;;;;;;;0.74;89.09;98628.59;1692258;84;20890;-61
2022/02/12 01:51:31;;;;;;;8.50;5.47;;;;;;;0.73;89.19;98630.41;1692360;83;20997;-64
2022/02/12 01:53:58;;;;;;;12.88;5.83;;;;;;;0.73;88.93;98635.69;1692293;84;21061;-63
2022/02/12 01:56:24;;;;;;;11.08;6.15;;;;;;;0.73;88.87;98636.22;1692099;84;20998;-60
2022/02/12 01:58:51;;;;;;;9.30;6.25;;;;;;;0.72;88.89;98639.36;1692416;84;21044;-66
2022/02/12 02:01:20;;;;;;;10.88;7.35;;;;;;;0.73;88.88;98644.13;1692039;83;20996;-65
2022/02/12 02:03:47;;;;;;;13.20;6.75;;;;;;;0.75;88.87;98638.13;1692157;83;20906;-64
2022/02/12 02:06:14;;;;;;;11.03;7.25;;;;;;;0.73;88.71;98648.88;1692218;84;20903;-66
2022/02/12 02:08:40;;;;;;;12.85;7.83;;;;;;;0.73;88.90;98643.59;1692194;84;21081;-65
2022/02/12 02:11:08;;;;;;;11.78;7.45;;;;;;;0.76;88.81;98652.41;1692156;83;21175;-62
2022/02/12 02:13:35;;;;;;;12.70;8.73;;;;;;;0.82;88.73;98663.95;1692072;84;21013;-62
2022/02/12 02:16:02;;;;;;;13.72;6.97;;;;;;;0.82;88.68;98655.54;1692352;84;21382;-67
2022/02/12 02:18:29;;;;;;;10.00;6.60;;;;;;;0.83;88.64;98658.45;1674515;84;20981;-66
2022/02/12 02:20:55;;;;;;;12.55;7.90;;;;;;;0.83;88.61;98657.64;1692249;84;20930;-67
2022/02/12 02:23:22;;;;;;;12.00;7.53;;;;;;;0.83;88.55;98669.00;1692262;84;21409;-65
2022/02/12 02:25:49;;;;;;;12.63;7.83;;;;;;;0.82;88.53;98666.09;1692096;84;21002;-60
2022/02/12 02:28:16;;;;;;;11.22;7.50;;;;;;;0.81;88.61;98668.41;1692159;84;20894;-60
2022/02/12 02:30:44;;;;;;;11.10;7.40;;;;;;;0.85;88.63;98663.54;1692126;84;20882;-61
2022/02/12 02:33:10;;;;;;;11.12;7.58;;;;;;;0.86;88.58;98669.09;1692146;84;20937;-61
2022/02/12 02:35:38;;;;;;;13.83;8.20;;;;;;;0.84;88.44;98675.09;1692036;84;21130;-62
2022/02/12 02:38:07;;;;;;;15.60;9.80;;;;;;;0.85;88.23;98684.10;1691992;84;20933;-67
2022/02/12 02:40:35;;;;;;;14.20;8.10;;;;;;;0.84;88.14;98682.50;1692391;84;21030;-60
2022/02/12 02:43:01;;;;;;;13.43;7.72;;;;;;;0.84;88.13;98690.41;1692122;84;20907;-61
2022/02/12 02:45:30;;;;;;;13.00;8.25;;;;;;;0.81;88.12;98693.47;1692064;84;21001;-66
2022/02/12 02:47:59;;;;;;;13.32;8.33;;;;;;;0.82;88.24;98699.05;1692206;84;21079;-66
2022/02/12 02:56:00;;;;;;;13.28;7.90;;;;;;;0.84;87.44;98708.88;1680012;85;20985;-63
2022/02/12 02:58:33;;;;;;;12.80;7.50;;;;;;;0.80;87.34;98715.57;1695226;84;21402;-64
2022/02/12 03:01:06;;;;;;;11.80;7.65;;;;;;;0.79;87.17;98722.39;1695284;84;21122;-66
2022/02/12 03:03:36;;;;;;;10.43;7.95;;;;;;;0.78;86.96;98728.16;1695204;84;20898;-66
2022/02/12 03:06:03;;;;;;;11.25;6.95;;;;;;;0.78;86.92;98724.73;1695136;84;21010;-63
2022/02/12 03:08:30;;;;;;;13.05;7.22;;;;;;;0.79;87.08;98736.39;1695111;84;20989;-64
2022/02/12 03:10:57;;;;;;;11.48;7.30;;;;;;;0.81;86.97;98731.70;1695207;84;20953;-64
2022/02/12 03:13:24;;;;;;;11.57;7.15;;;;;;;0.84;86.98;98735.25;1694978;84;22201;-64
2022/02/12 03:15:52;;;;;;;13.15;7.83;;;;;;;0.90;86.97;98742.81;1694954;84;20928;-62
2022/02/12 03:18:19;;;;;;;9.53;6.40;;;;;;;0.92;86.53;98742.91;1679086;84;20906;-66
2022/02/12 03:20:46;;;;;;;8.88;6.65;;;;;;;0.92;86.39;98737.63;1695100;84;20878;-65
2022/02/12 03:23:12;;;;;;;11.40;6.37;;;;;;;0.90;86.45;98749.41;1695131;84;20989;-65
2022/02/12 03:25:39;;;;;;;14.18;6.70;;;;;;;0.86;85.59;98742.44;1695117;84;21086;-66
2022/02/12 03:28:07;;;;;;;9.58;6.47;;;;;;;0.82;85.01;98750.48;1695142;84;20938;-65
2022/02/12 03:30:39;;;;;;;11.55;7.17;;;;;;;0.76;84.38;98757.08;1695113;84;20922;-67
2022/02/12 03:33:06;;;;;;;10.55;6.95;;;;;;;0.72;84.72;98759.84;1695101;84;21401;-66
2022/02/12 03:35:34;;;;;;;11.00;6.58;;;;;;;0.71;84.96;98765.62;1695141;84;20847;-64
2022/02/12 03:38:10;;;;;;;13.62;6.90;;;;;;;0.72;84.85;98765.11;1695123;84;21127;-67
2022/02/12 03:40:43;;;;;;;12.25;6.80;;;;;;;0.72;84.83;98765.93;1695058;84;21017;-66
2022/02/12 03:43:10;;;;;;;12.82;7.12;;;;;;;0.72;83.63;98779.11;1695028;84;21366;-64
2022/02/12 03:45:36;;;;;;;13.03;7.28;;;;;;;0.66;83.30;98772.02;1694991;84;21010;-64
2022/02/12 03:48:05;;;;;;;10.72;7.87;;;;;;;0.65;82.48;98778.33;1695122;84;20937;-64
2022/02/12 03:50:32;;;;;;;13.90;7.95;;;;;;;0.62;82.47;98782.69;1695027;84;21101;-61
2022/02/12 03:53:00;;;;;;;12.35;7.47;;;;;;;0.60;82.61;98775.50;1695018;84;20997;-64
2022/02/12 03:55:27;;;;;;;11.50;7.17;;;;;;;0.57;81.81;98780.67;1695105;84;21036;-65
2022/02/12 03:57:55;;;;;;;9.75;7.55;;;;;;;0.57;81.65;98781.99;1694968;84;20961;-64
2022/02/12 04:00:21;;;;;;;9.75;7.00;;;;;;;0.56;81.33;98785.66;1695174;84;20901;-62
2022/02/12 04:02:49;;;;;;;9.83;6.85;;;;;;;0.55;81.27;98777.94;1695087;84;21132;-64
2022/02/12 04:05:16;;;;;;;10.88;6.10;;;;;;;0.55;81.32;98784.03;1695000;84;20859;-62
2022/02/12 04:07:44;;;;;;;9.05;6.35;;;;;;;0.54;81.23;98778.45;1695186;84;20905;-62
2022/02/12 04:10:13;;;;;;;12.20;5.67;;;;;;;0.54;81.42;98767.11;1694975;84;20929;-62
2022/02/12 04:12:40;;;;;;;9.95;5.83;;;;;;;0.56;80.99;98763.76;1695092;84;20941;-64
2022/02/12 04:15:08;;;;;;;8.23;4.75;;;;;;;0.57;81.14;98766.67;1695069;84;21551;-64
2022/02/12 04:17:35;;;;;;;9.60;5.20;;;;;;;0.56;81.16;98763.25;1695099;84;20942;-64
2022/02/12 04:20:06;;;;;;;8.03;4.50;;;;;;;0.58;81.29;98761.72;1695199;84;21390;-67
2022/02/12 04:22:33;;;;;;;12.07;5.60;;;;;;;0.60;81.20;98762.31;1695064;84;21040;-66
2022/02/12 04:25:01;;;;;;;9.63;5.37;;;;;;;0.61;81.13;98754.19;1695054;84;20946;-62
2022/02/12 04:27:27;;;;;;;10.95;5.40;;;;;;;0.62;80.95;98761.09;1695546;84;21098;-62
2022/02/12 04:29:56;;;;;;;9.85;5.00;;;;;;;0.65;81.12;98765.14;1695185;84;21409;-66
2022/02/12 04:32:23;;;;;;;12.95;6.40;;;;;;;0.68;81.12;98761.56;1695455;84;20974;-64
2022/02/12 04:34:50;;;;;;;8.78;4.95;;;;;;;0.71;81.39;98759.02;1695108;84;20933;-67
2022/02/12 04:37:20;;;;;;;10.75;5.55;;;;;;;0.78;81.10;98751.11;1695225;84;20934;-63
2022/02/12 04:39:47;;;;;;;8.00;5.15;;;;;;;0.83;81.02;98757.86;1695120;84;21547;-62
2022/02/12 04:42:16;;;;;;;9.48;5.20;;;;;;;0.84;81.01;98752.90;1695249;84;21314;-67
2022/02/12 04:44:45;;;;;;;11.68;7.15;;;;;;;0.85;80.88;98755.31;1695468;84;20909;-67
2022/02/12 04:47:13;;;;;;;11.00;6.10;;;;;;;0.87;80.68;98758.58;1695211;84;20930;-65
2022/02/12 04:49:40;;;;;;;8.35;5.12;;;;;;;0.93;80.48;98764.82;1692882;84;20913;-63
2022/02/12 04:52:08;;;;;;;11.75;6.28;;;;;;;0.90;80.48;98756.82;1677390;85;21162;-62
2022/02/12 04:54:36;;;;;;;9.83;6.35;;;;;;;0.88;80.75;98756.22;1677465;85;20895;-62
2022/02/12 04:57:04;;;;;;;10.15;6.05;;;;;;;0.89;81.09;98767.09;1677317;85;20942;-65
2022/02/12 04:59:32;;;;;;;10.05;5.92;;;;;;;0.87;81.30;98781.50;1677544;85;20986;-66
2022/02/12 05:01:59;;;;;;;10.00;5.75;;;;;;;0.82;81.77;98774.22;1677432;85;20958;-65
2022/02/12 05:04:26;;;;;;;10.23;6.10;;;;;;;0.83;82.26;98777.64;1677430;84;21132;-65
2022/02/12 05:06:53;;;;;;;12.00;6.17;;;;;;;0.78;83.02;98783.54;1677247;85;20891;-65
2022/02/12 05:09:21;;;;;;;11.50;6.65;;;;;;;0.74;83.39;98785.48;1677404;84;20974;-63
2022/02/12 05:11:50;;;;;;;10.25;5.75;;;;;;;0.72;83.92;98790.16;1677488;85;21536;-62
2022/02/12 05:14:19;;;;;;;9.80;5.65;;;;;;;0.68;84.42;98783.20;1677400;85;21005;-64
2022/02/12 05:16:46;;;;;;;13.40;6.22;;;;;;;0.66;84.94;98787.84;1677309;85;21123;-68
2022/02/12 05:19:13;;;;;;;11.63;5.87;;;;;;;0.66;85.28;98781.25;1677430;85;21429;-68
2022/02/12 05:21:40;;;;;;;9.35;5.47;;;;;;;0.74;85.71;98784.98;1677409;84;20923;-67
2022/02/12 05:24:07;;;;;;;11.30;5.83;;;;;;;0.81;85.79;98784.45;1677373;85;21033;-63
2022/02/12 05:26:34;;;;;;;10.05;5.40;;;;;;;0.80;85.83;98791.27;1677413;85;21513;-63
2022/02/12 05:29:01;;;;;;;8.35;4.80;;;;;;;0.76;86.10;98788.22;1677597;85;21425;-63
2022/02/12 05:31:28;;;;;;;9.10;4.97;;;;;;;0.73;86.31;98791.27;1677312;85;20986;-63
2022/02/12 05:33:54;;;;;;;10.68;5.05;;;;;;;0.72;86.64;98792.80;1677355;85;20927;-63
2022/02/12 05:36:21;;;;;;;7.87;4.83;;;;;;;0.73;86.94;98791.27;1677350;85;20971;-65
2022/02/12 05:38:47;;;;;;;10.38;5.45;;;;;;;0.72;87.10;98794.94;1677352;85;21013;-64
2022/02/12 05:41:15;;;;;;;8.53;5.10;;;;;;;0.70;87.46;98803.56;1677574;85;21870;-63
2022/02/12 05:43:43;;;;;;;7.58;4.45;;;;;;;0.71;87.73;98793.30;1677225;85;20864;-62
2022/02/12 05:46:11;;;;;;;6.80;4.50;;;;;;;0.74;87.98;98805.27;1677620;85;20951;-65
2022/02/12 05:48:37;;;;;;;9.20;5.05;;;;;;;0.76;88.34;98806.68;1677244;84;21028;-66
2022/02/12 05:51:04;;;;;;;8.95;5.72;;;;;;;0.74;88.28;98812.67;1682163;84;20925;-67
2022/02/12 05:53:30;;;;;;;9.20;5.85;;;;;;;0.71;88.55;98814.40;1685700;85;21499;-67
2022/02/12 05:55:57;;;;;;;11.53;5.40;;;;;;;0.68;88.94;98818.26;1672653;85;20953;-68
2022/02/12 05:58:24;;;;;;;9.10;5.60;;;;;;;0.68;89.27;98820.11;1719982;83;20912;-63
2022/02/12 06:00:51;;;;;;;8.93;5.95;;;;;;;0.66;89.45;98828.70;1672905;85;21057;-63
2022/02/12 06:03:18;;;;;;;9.93;6.65;;;;;;;0.65;89.66;98835.83;1719989;83;20978;-65
2022/02/12 06:05:46;;;;;;;11.78;7.17;;;;;;;0.64;89.89;98841.29;1672706;85;21134;-65
2022/02/12 06:08:13;;;;;;;8.80;6.10;;;;;;;0.63;90.03;98843.64;1720025;83;20919;-60
2022/02/12 06:10:41;;;;;;;10.00;6.40;;;;;;;0.67;90.44;98848.80;1672682;85;20955;-61
2022/02/12 06:13:08;;;;;;;12.55;7.35;;;;;;;0.67;90.49;98848.30;1719954;83;20884;-66
2022/02/12 06:15:36;;;;;;;10.15;7.17;;;;;;;0.66;90.58;98849.80;1719904;83;20896;-63
2022/02/12 06:18:04;;;;;;;10.78;6.87;;;;;;;0.65;90.70;98857.42;1719985;83;20931;-63
2022/02/12 06:20:31;;;;;;;12.23;6.40;;;;;;;0.66;90.72;98852.44;1719942;83;20970;-62
2022/02/12 06:22:58;;;;;;;12.23;6.58;;;;;;;0.65;90.65;98857.42;1719970;83;20931;-61
2022/02/12 06:25:26;;;;;;;13.13;6.47;;;;;;;0.66;90.61;98864.30;1719933;83;20868;-66
2022/02/12 06:27:52;;;;;;;11.10;6.80;;;;;;;0.67;90.23;98871.21;1720103;83;20844;-64
2022/02/12 06:30:19;;;;;;;10.78;6.92;;;;;;;0.70;90.23;98870.81;1720193;83;21438;-64
2022/02/12 06:32:45;;;;;;;7.28;5.95;;;;;;;0.69;89.70;98879.72;1719902;83;20879;-63
2022/02/12 06:35:12;;;;;;;11.03;6.22;;;;;;;0.66;89.83;98888.85;1663495;86;20926;-61
2022/02/12 06:37:38;;;;;;;13.48;6.78;;;;;;;0.68;89.65;98882.08;1722797;83;20935;-61
2022/02/12 06:40:07;;;;;;;11.43;7.30;;;;;;;0.71;89.46;98891.41;1722946;83;21395;-63
2022/02/12 06:42:34;;;;;;;13.83;7.00;;;;;;;0.74;89.00;98891.78;1723065;83;21708;-65
2022/02/12 06:45:01;;;;;;;9.98;6.58;;;;;;;0.75;88.85;98889.47;1722757;83;20967;-67
2022/02/12 06:47:27;;;;;;;11.08;7.17;;;;;;;0.81;88.87;98901.81;1722764;83;21010;-67
2022/02/12 06:49:54;;;;;;;9.55;6.83;;;;;;;0.85;88.75;98900.38;1722875;83;20927;-68
2022/02/12 06:52:20;;;;;;;9.10;6.10;;;;;;;0.88;88.42;98901.80;1714887;83;20899;-68
2022/02/12 06:54:47;;;;;;;11.55;7.00;;;;;;;0.86;88.26;98909.11;1714549;83;21114;-65
2022/02/12 06:57:13;;;;;;;10.18;6.75;;;;;;;0.87;87.92;98913.38;1714696;83;21403;-62
2022/02/12 06:59:40;;;;;;;9.85;6.67;;;;;;;0.86;87.90;98915.20;1714607;83;20975;-64
2022/02/12 07:02:07;;;;;;;10.75;7.47;;;;;;;0.87;87.95;98921.30;1714919;83;20853;-65
2022/02/12 07:04:33;;;;;;;12.95;7.25;;;;;;;0.88;88.05;98914.48;1714682;83;20852;-63
2022/02/12 07:07:01;;;;;;;11.05;7.30;;;;;;;0.91;87.96;98919.86;1714785;83;21824;-65
2022/02/12 07:09:29;;;;;;;11.05;6.90;;;;;;;0.95;87.27;98928.47;1714633;83;46778;-64
2022/02/12 07:11:56;;;;;;;10.43;7.35;;;;;;;1.01;86.64;98926.34;1714697;83;21404;-64
2022/02/12 07:14:24;;;;;;;11.73;7.97;;;;;;;1.01;86.38;98930.30;1714633;83;21206;-63
2022/02/12 07:16:51;;;;;;;12.05;8.15;;;;;;;0.97;86.28;98929.07;1714498;83;20975;-65
2022/02/12 07:19:18;;;;;;;11.20;7.58;;;;;;;1.01;85.70;98936.90;1714778;83;21505;-63
2022/02/12 07:21:45;;;;;;;9.63;6.90;;;;;;;1.06;85.61;98941.02;1714427;83;20884;-62
2022/02/12 07:24:11;;;;;;;9.25;6.42;;;;;;;1.14;85.48;98952.69;1714836;83;20975;-64
2022/02/12 07:26:39;;;;;;;9.85;6.22;;;;;;;1.21;84.27;98950.84;1714521;83;20951;-65
2022/02/12 07:29:08;;;;;;;10.63;6.95;;;;;;;1.26;84.54;98956.31;1714565;83;21029;-67
2022/02/12 07:31:35;;;;;;;9.53;6.75;;;;;;;1.31;83.48;98959.14;1714479;83;21138;-67
2022/02/12 07:34:01;;;;;;;8.98;5.75;;;;;;;1.30;83.19;98961.97;1714598;83;21391;-66
2022/02/12 07:36:29;;;;;;;8.78;5.80;;;;;;;1.26;83.19;98965.55;1714572;83;20904;-63
2022/02/12 07:38:55;;;;;;;8.15;5.97;;;;;;;1.33;82.34;98965.02;1714635;83;20896;-63
2022/02/12 07:41:22;;;;;;;9.88;7.20;;;;;;;1.43;82.52;98970.38;1714581;83;20875;-63
2022/02/12 07:43:48;;;;;;;10.50;6.53;;;;;;;1.54;81.55;98968.40;1714767;83;21476;-63
2022/02/12 07:46:15;;;;;;;9.85;6.33;;;;;;;1.62;81.45;98990.62;1714402;83;20844;-63
2022/02/12 07:48:43;;;;;;;10.78;7.30;;;;;;;1.64;81.21;98974.05;1714546;83;20880;-66
2022/02/12 07:51:09;;;;;;;11.43;7.65;;;;;;;1.60;81.96;98986.06;1715314;83;20957;-65
2022/02/12 07:53:36;;;;;;;10.20;6.92;;;;;;;1.50;82.71;98987.82;1717112;83;21433;-65
2022/02/12 07:56:04;;;;;;;9.95;7.12;;;;;;;1.36;83.38;98992.34;1717201;83;21127;-67
2022/02/12 07:58:31;;;;;;;11.05;7.75;;;;;;;1.27;83.96;98984.31;1717284;83;20945;-68
2022/02/12 08:00:58;;;;;;;8.30;6.40;;;;;;;1.23;84.51;98994.98;1717233;83;20988;-63
2022/02/12 08:03:26;;;;;;;10.90;6.95;;;;;;;1.18;84.66;98997.43;1717149;83;20917;-65
2022/02/12 08:05:53;;;;;;;12.73;7.92;;;;;;;1.09;85.15;99013.18;1717124;83;20949;-65
2022/02/12 08:08:20;;;;;;;9.43;7.22;;;;;;;0.97;85.51;99012.17;1717256;83;21129;-67
2022/02/12 08:13:33;;;;;;;;;;;;;;;0.90;86.36;99021.91;1720042;83;21445;-63
2022/02/12 08:15:59;;;;;;;7.95;5.55;;;;;;;0.94;86.81;99025.79;1717141;83;20073;-65
2022/02/12 08:18:26;;;;;;;7.58;5.60;;;;;;;0.89;87.00;99026.91;1717279;83;20905;-65
2022/02/12 08:20:53;;;;;;;9.68;5.80;;;;;;;0.79;87.19;99026.48;1717217;83;21122;-64
2022/02/12 08:23:19;;;;;;;6.65;4.50;;;;;;;0.72;87.57;99033.59;1717528;83;21576;-65
2022/02/12 08:25:46;;;;;;;5.10;3.90;;;;;;;0.67;87.87;99029.42;1717245;83;20922;-66
2022/02/12 08:28:12;;;;;;;6.72;4.50;;;;;;;0.61;88.58;99036.83;1717213;83;20914;-67
2022/02/12 08:30:40;;;;;;;4.87;4.05;;;;;;;0.54;88.61;99042.07;1717142;83;20949;-65
2022/02/12 08:33:08;;;;;;;5.80;4.05;;;;;;;0.51;88.87;99048.27;1717186;83;21049;-64
2022/02/12 08:35:35;;;;;;;6.03;3.87;;;;;;;0.51;89.03;99051.72;1717443;83;20898;-66
2022/02/12 08:38:02;;;;;;;6.15;3.87;;;;;;;0.55;89.13;99056.89;1717327;83;21440;-64
2022/02/12 08:40:29;;;;;;;5.83;4.03;;;;;;;0.61;89.19;99061.88;1717207;83;20973;-68
2022/02/12 08:42:55;;;;;;;5.62;4.15;;;;;;;0.66;89.37;99065.52;1717212;83;20945;-69
2022/02/12 08:45:23;;;;;;;6.53;4.53;;;;;;;0.69;89.28;99070.40;1717283;83;21164;-69
2022/02/12 08:47:50;;;;;;;5.30;4.15;;;;;;;0.73;89.29;99073.43;1717141;83;20906;-64
2022/02/12 08:50:16;;;;;;;5.62;4.58;;;;;;;0.74;89.38;99082.98;1717436;83;20863;-64
2022/02/12 08:52:44;;;;;;;4.90;3.92;;;;;;;0.68;89.46;99083.27;1715073;83;21411;-64
2022/02/12 09:05:26;;;;;;;6.03;4.87;;;;;;;0.47;91.59;99124.28;1714874;82;20923;-65
2022/02/12 09:07:53;;;;;;;5.70;4.40;;;;;;;0.45;92.02;99136.03;1714543;83;20895;-64
2022/02/12 09:10:21;;;;;;;4.50;3.55;;;;;;;0.44;92.09;99139.70;1724955;82;20979;-64
2022/02/12 09:12:48;;;;;;;3.77;3.00;;;;;;;0.45;92.34;99139.98;1742399;82;20986;-68
2022/02/12 09:15:14;;;;;;;4.87;3.62;;;;;;;0.42;92.54;99145.68;1744515;82;20883;-68
2022/02/12 09:17:41;;;;;;;5.03;3.90;;;;;;;0.40;92.60;99156.93;1744272;82;20880;-69
2022/02/12 09:20:09;;;;;;;5.42;4.05;;;;;;;0.40;92.76;99156.93;1729749;82;21589;-69
2022/02/12 09:22:36;;;;;;;5.45;3.92;;;;;;;0.43;92.84;99171.01;1716626;82;21912;-65
2022/02/12 09:25:05;;;;;;;4.15;3.47;;;;;;;0.47;92.75;99176.22;1714582;83;20891;-67
2022/02/12 09:27:33;;;;;;;5.58;3.83;;;;;;;0.53;92.68;99178.05;1714576;82;20927;-64
2022/02/12 09:30:00;;;;;;;4.60;3.80;;;;;;;0.56;92.56;99186.90;1714820;83;21316;-69
2022/02/12 09:32:26;;;;;;;6.22;4.58;;;;;;;0.60;92.52;99194.21;1716638;82;20975;-68
2022/02/12 09:34:53;;;;;;;7.55;4.30;;;;;;;0.62;92.39;99198.78;1714524;83;21095;-63
2022/02/12 09:37:20;;;;;;;4.60;3.58;;;;;;;0.64;92.22;99206.48;1714566;83;20923;-64
2022/02/12 09:39:46;;;;;;;5.65;4.20;;;;;;;0.66;91.93;99210.55;1717206;82;20971;-63
2022/02/12 09:42:14;;;;;;;5.45;4.37;;;;;;;0.70;92.00;99218.89;1744165;82;20908;-62
2022/02/12 09:44:41;;;;;;;5.20;3.77;;;;;;;0.75;91.96;99229.67;1744196;82;20923;-64
2022/02/12 09:47:26;;;;;;;5.00;4.08;;;;;;;0.85;91.51;99235.36;1742196;82;21119;-62
2022/02/12 09:49:56;;;;;;;7.60;4.20;;;;;;;0.92;91.37;99232.23;1741900;82;21047;-65
2022/02/12 09:52:23;;;;;;;5.42;4.00;;;;;;;0.96;91.04;99246.68;1752058;80;20919;-64
2022/02/12 09:54:49;;;;;;;5.45;3.98;;;;;;;0.98;90.82;99238.06;1730639;81;20938;-67
2022/02/12 09:57:16;;;;;;;5.53;3.60;;;;;;;0.99;90.61;99250.22;1750511;81;21259;-64
2022/02/12 09:59:44;;;;;;;5.47;3.65;;;;;;;0.96;90.34;99251.95;1751930;82;21128;-66
2022/02/12 10:02:18;;;;;;;5.30;3.42;;;;;;;0.94;90.34;99260.58;1739054;82;20927;-66
2022/02/12 10:04:45;;;;;;;3.93;2.67;;;;;;;0.93;90.25;99262.90;1723078;83;20915;-65
2022/02/12 10:07:25;;;;;;;4.15;3.35;;;;;;;0.92;89.69;99262.58;1735805;82;20923;-62
2022/02/12 10:10:20;;;;;;;6.08;3.17;;;;;;;0.92;89.85;99264.43;1726384;82;20891;-64
2022/02/12 10:12:49;;;;;;;4.42;3.17;;;;;;;0.93;89.62;99276.59;1724889;82;21742;-61
2022/02/12 10:15:29;;;;;;;4.75;3.02;;;;;;;0.95;89.64;99275.38;1722379;83;20887;-65
2022/02/12 10:17:57;;;;;;;3.67;2.60;;;;;;;0.96;89.54;99277.52;1724803;82;20908;-66
2022/02/12 10:20:33;;;;;;;5.95;3.52;;;;;;;0.96;89.51;99287.58;1723016;83;20895;-64
2022/02/12 10:23:18;;;;;;;4.45;3.12;;;;;;;0.95;89.58;99291.71;1732181;82;21144;-66
2022/02/12 10:25:47;;;;;;;5.43;3.40;;;;;;;0.91;89.65;99297.91;1700876;84;21204;-61
2022/02/12 10:28:16;;;;;;;4.83;3.20;;;;;;;0.83;89.64;99310.42;1739739;82;21379;-62
2022/02/12 10:30:46;;;;;;;5.72;2.85;;;;;;;0.74;89.67;99307.15;1740546;82;20880;-61
2022/02/12 10:33:13;;;;;;;4.87;2.70;;;;;;;0.65;89.75;99314.91;1749583;82;21376;-64
2022/02/12 10:35:41;;;;;;;4.08;2.80;;;;;;;0.57;89.78;99315.88;1750039;82;21509;-62
2022/02/12 10:38:10;;;;;;;4.12;2.52;;;;;;;0.53;89.80;99317.78;1689267;84;21095;-64
2022/02/12 10:40:39;;;;;;;3.80;2.42;;;;;;;0.49;89.73;99317.88;1725704;81;21523;-66
2022/02/12 10:43:07;;;;;;;3.70;2.22;;;;;;;0.45;89.72;99328.47;1722909;83;21403;-61
2022/02/12 10:45:34;;;;;;;4.05;2.50;;;;;;;0.43;89.63;99322.58;1722876;83;21390;-66
2022/02/12 10:48:00;;;;;;;5.25;3.10;;;;;;;0.45;89.70;99335.06;1722892;83;20888;-65
2022/02/12 10:50:29;;;;;;;4.08;2.30;;;;;;;0.45;89.63;99334.56;1743117;82;21129;-66
2022/02/12 10:53:02;;;;;;;4.22;2.58;;;;;;;0.47;89.43;99342.30;1743862;81;20891;-67
2022/02/12 10:55:35;;;;;;;5.90;2.80;;;;;;;0.44;89.36;99337.41;1704850;84;21521;-62
2022/02/12 10:58:08;;;;;;;5.33;2.60;;;;;;;0.43;88.98;99339.22;1717194;82;20902;-66
2022/02/12 11:00:38;;;;;;;5.42;2.25;;;;;;;0.46;88.83;99352.52;1702376;82;20862;-65
2022/02/12 11:03:06;;;;;;;4.67;3.17;;;;;;;0.46;88.46;99344.61;1692804;83;21091;-63
2022/02/12 11:05:34;;;;;;;3.22;2.30;;;;;;;0.48;88.16;99351.81;1715818;83;20887;-63
2022/02/12 11:08:04;;;;;;;4.50;2.58;;;;;;;0.48;88.03;99355.77;1721139;83;21445;-64
2022/02/12 11:10:31;;;;;;;5.62;2.70;;;;;;;0.54;87.88;99364.25;1717583;82;21002;-64
2022/02/12 11:12:57;;;;;;;6.55;3.00;;;;;;;0.60;87.66;99359.50;1699699;83;21061;-62
2022/02/12 11:15:28;;;;;;;5.97;3.58;;;;;;;0.68;87.40;99364.11;1714452;83;21122;-64
2022/02/12 11:17:59;;;;;;;4.80;2.80;;;;;;;0.76;87.38;99373.70;1704439;82;20976;-66
2022/02/12 11:20:27;;;;;;;3.95;2.30;;;;;;;0.81;86.98;99368.66;1720890;83;20862;-62
2022/02/12 11:23:27;;;;;;;4.45;2.27;;;;;;;0.82;86.37;99375.58;1716078;82;21085;-65
2022/02/12 11:25:57;;;;;;;2.35;1.92;;;;;;;0.83;86.18;99365.81;1692073;83;20894;-61
2022/02/12 11:28:32;;;;;;;3.60;2.22;;;;;;;0.85;86.17;99369.89;1683372;83;21109;-63
2022/02/12 11:31:18;;;;;;;;;;;;;;;0.92;86.00;99375.23;1709208;82;21504;-63
2022/02/12 11:34:14;;;;;;;3.95;2.30;;;;;;;1.03;85.93;99378.63;1721024;83;20079;-65
2022/02/12 11:36:41;;;;;;;4.08;2.60;;;;;;;1.13;85.38;99387.80;1721071;82;20942;-65
2022/02/12 11:39:18;;;;;;;3.95;2.77;;;;;;;1.20;85.05;99379.41;1719030;83;20949;-61
2022/02/12 11:41:46;;;;;;;5.08;2.90;;;;;;;1.26;84.79;99390.51;1721069;82;21107;-64
2022/02/12 11:44:40;;;;;;;3.92;2.12;;;;;;;1.27;84.31;99397.40;1721158;83;20882;-67
2022/02/12 11:47:06;;;;;;;3.98;2.12;;;;;;;1.25;82.97;99403.38;1721051;82;21481;-64
2022/02/12 11:49:39;;;;;;;7.05;2.40;;;;;;;1.22;82.29;99403.80;1711993;83;20906;-66
2022/02/12 11:52:19;;;;;;;4.58;2.17;;;;;;;1.21;82.62;99408.76;1692151;84;20941;-61
2022/02/12 11:54:57;;;;;;;3.67;1.95;;;;;;;1.20;82.05;99405.00;1692324;84;21466;-62
2022/02/12 11:57:32;;;;;;;3.33;2.20;;;;;;;1.18;81.54;99411.78;1697292;83;21450;-64
2022/02/12 12:00:07;;;;;;;4.47;2.10;;;;;;;1.13;80.95;99412.87;1692563;84;20993;-64
2022/02/12 12:02:44;;;;;;;2.20;1.70;;;;;;;1.12;81.03;99417.03;1692210;84;21026;-63